首页
METAR-TAF:

METAR-TAF

机场 :

Monroe Municipal Airport

门罗, 威斯康辛州, 美国

纬度: 42-36-54N, 经度: 089-35-27W, 海拔: 331米

当前天气观测

该预报发布于12分钟前的02:35 UTC
风速8节,风向东南
温度 0°C
湿度 80%
气压 1021 hPa
能見度: 16.1公里
天空无云

METAR: KEFT 170235Z AUTO 14008KT 10SM CLR 00/M03 A3016 RMK AO2 T00001030

时间: 20:47 (02:47 UTC)


TAF: 丢失

超过4000个机场的气象观测和天气预报(METAR&TAF报告)。

可查询的气象台以黄色和红色小点在地图上表示。

将鼠标移到小点上方,可查看气象台名称。

然后点击查看天气观测和预报。

如需切换地图:点击带黑十字的绿色按钮放大地图;点击带横线的绿色按钮缩小地图;或者点击绿色箭头查看邻近地区的地图。


METAR-TAF: